createdAt,value
2018-07-17T00:02:04.983Z,9.63
2018-07-17T00:05:15.235Z,9.58
2018-07-17T00:08:25.463Z,7.92
2018-07-17T00:11:35.688Z,9.18
2018-07-17T00:14:46.545Z,9.08
2018-07-17T00:17:56.859Z,9.33
2018-07-17T00:21:07.142Z,9.33
2018-07-17T00:24:17.785Z,8.93
2018-07-17T00:27:30.426Z,7.78
2018-07-17T00:30:40.629Z,9.30
2018-07-17T00:33:51.320Z,7.33
2018-07-17T00:37:01.198Z,7.65
2018-07-17T00:40:11.147Z,8.55
2018-07-17T00:43:21.590Z,9.18
2018-07-17T00:46:31.964Z,7.03
2018-07-17T00:49:41.973Z,7.40
2018-07-17T00:52:52.059Z,8.15
2018-07-17T00:56:02.801Z,8.18
2018-07-17T00:59:13.179Z,9.08
2018-07-17T01:02:28.710Z,9.63
2018-07-17T01:05:44.627Z,10.32
2018-07-17T01:09:00.671Z,11.28
2018-07-17T01:12:13.399Z,9.63
2018-07-17T01:15:29.774Z,9.45
2018-07-17T01:18:40.337Z,7.25
2018-07-17T01:21:50.558Z,10.28
2018-07-17T01:25:00.686Z,9.30
2018-07-17T01:28:11.490Z,8.10
2018-07-17T01:31:21.617Z,7.35
2018-07-17T01:34:31.545Z,7.92
2018-07-17T01:37:41.529Z,7.72
2018-07-17T01:40:52.277Z,9.28
2018-07-17T01:44:03.100Z,7.15
2018-07-17T01:47:13.157Z,8.80
2018-07-17T01:50:23.027Z,9.33
2018-07-17T01:53:33.702Z,8.68
2018-07-17T01:56:44.312Z,10.08
2018-07-17T01:59:54.689Z,8.98
2018-07-17T02:03:04.645Z,8.90
2018-07-17T02:06:14.694Z,9.33
2018-07-17T02:09:24.551Z,9.35
2018-07-17T02:12:34.499Z,8.03
2018-07-17T02:15:44.750Z,9.55
2018-07-17T02:18:54.778Z,9.55
2018-07-17T02:22:05.178Z,9.90
2018-07-17T02:25:15.877Z,8.43
2018-07-17T02:28:25.828Z,9.13
2018-07-17T02:31:36.718Z,8.65
2018-07-17T02:34:47.368Z,10.18
2018-07-17T02:37:58.205Z,10.05
2018-07-17T02:41:08.309Z,9.15
2018-07-17T02:44:19.293Z,7.97
2018-07-17T02:47:29.416Z,9.10
2018-07-17T02:50:40.070Z,8.83
2018-07-17T02:53:50.841Z,7.30
2018-07-17T02:57:01.194Z,8.60
2018-07-17T03:00:11.757Z,8.68
2018-07-17T03:03:21.919Z,9.48
2018-07-17T03:06:32.488Z,8.60
2018-07-17T03:09:43.558Z,8.58
2018-07-17T03:12:54.483Z,9.68
2018-07-17T03:16:04.722Z,9.25
2018-07-17T03:19:15.502Z,10.63
2018-07-17T03:22:25.622Z,9.05
2018-07-17T03:25:35.795Z,9.25
2018-07-17T03:28:45.930Z,12.00
2018-07-17T03:31:55.983Z,9.50
2018-07-17T03:35:06.188Z,11.12
2018-07-17T03:38:16.606Z,9.18
2018-07-17T03:41:26.732Z,6.55
2018-07-17T03:44:37.601Z,10.13
2018-07-17T03:47:47.866Z,7.90
2018-07-17T03:50:57.983Z,10.40
2018-07-17T03:54:08.678Z,8.13
2018-07-17T03:57:18.876Z,9.13
2018-07-17T04:00:29.891Z,10.75
2018-07-17T04:03:40.579Z,8.18
2018-07-17T04:06:50.594Z,9.15
2018-07-17T04:10:00.742Z,11.18
2018-07-17T04:13:11.682Z,8.20
2018-07-17T04:16:22.249Z,9.18
2018-07-17T04:19:32.258Z,7.80
2018-07-17T04:22:42.194Z,8.95
2018-07-17T04:25:52.097Z,11.53
2018-07-17T04:29:02.895Z,10.23
2018-07-17T04:32:12.986Z,8.78
2018-07-17T04:35:23.270Z,8.85
2018-07-17T04:38:33.960Z,10.85
2018-07-17T04:41:44.184Z,11.08
2018-07-17T04:44:54.418Z,11.20
2018-07-17T04:48:04.382Z,11.18
2018-07-17T04:51:14.255Z,10.68
2018-07-17T04:54:24.318Z,8.45
2018-07-17T04:57:34.808Z,8.63
2018-07-17T05:00:45.467Z,8.70
2018-07-17T05:03:55.689Z,9.53
2018-07-17T05:07:05.665Z,11.55
2018-07-17T05:10:16.423Z,8.95
2018-07-17T05:13:26.331Z,10.60
2018-07-17T05:16:36.268Z,8.43
2018-07-17T05:19:48.530Z,7.78
2018-07-17T05:22:58.759Z,9.98
2018-07-17T05:26:09.454Z,9.93
2018-07-17T05:29:20.450Z,9.00
2018-07-17T05:32:30.934Z,8.60
2018-07-17T05:35:41.014Z,8.50
2018-07-17T05:38:51.767Z,9.43
2018-07-17T05:42:02.019Z,8.90
2018-07-17T05:45:12.175Z,9.50
2018-07-17T05:48:22.821Z,7.70
2018-07-17T05:51:33.589Z,9.95
2018-07-17T05:54:44.517Z,10.88
2018-07-17T05:57:55.540Z,8.63
2018-07-17T06:01:06.241Z,7.95
2018-07-17T06:04:16.940Z,8.70
2018-07-17T06:07:27.688Z,9.33
2018-07-17T06:10:38.106Z,7.90
2018-07-17T06:13:48.121Z,10.70
2018-07-17T06:16:57.937Z,10.40
2018-07-17T06:20:09.014Z,10.32
2018-07-17T06:23:19.290Z,8.10
2018-07-17T06:26:29.383Z,9.10
2018-07-17T06:29:40.105Z,9.15
2018-07-17T06:32:50.168Z,9.93
2018-07-17T06:36:00.858Z,7.97
2018-07-17T06:39:10.960Z,9.48
2018-07-17T06:42:20.919Z,9.60
2018-07-17T06:45:31.967Z,10.15
2018-07-17T06:48:42.317Z,9.68
2018-07-17T06:51:53.899Z,9.25
2018-07-17T06:55:04.488Z,7.72
2018-07-17T06:58:14.797Z,5.60
2018-07-17T07:01:25.312Z,8.75
2018-07-17T07:04:36.071Z,8.30
2018-07-17T07:07:45.986Z,9.08
2018-07-17T07:10:56.054Z,8.43
2018-07-17T07:14:06.917Z,8.30
2018-07-17T07:17:17.530Z,8.63
2018-07-17T07:20:27.489Z,6.92
2018-07-17T07:23:37.819Z,8.98
2018-07-17T07:26:48.454Z,8.80
2018-07-17T07:29:59.373Z,7.42
2018-07-17T07:33:10.162Z,9.30
2018-07-17T07:36:21.007Z,7.78
2018-07-17T07:39:30.881Z,7.05
2018-07-17T07:42:41.647Z,6.83
2018-07-17T07:45:52.520Z,8.95
2018-07-17T07:49:03.582Z,6.60
2018-07-17T07:52:14.166Z,6.97
2018-07-17T07:55:25.222Z,7.70
2018-07-17T07:58:36.083Z,7.93
2018-07-17T08:01:49.287Z,5.97
2018-07-17T08:04:59.031Z,6.77
2018-07-17T08:08:11.367Z,6.00
2018-07-17T08:11:21.771Z,7.90
2018-07-17T08:14:32.265Z,5.17
2018-07-17T08:17:42.805Z,6.27
2018-07-17T08:20:55.560Z,5.80
2018-07-17T08:24:06.182Z,5.37
2018-07-17T08:27:16.520Z,5.77
2018-07-17T08:30:26.576Z,8.40
2018-07-17T08:33:36.920Z,7.30
2018-07-17T08:36:47.026Z,7.13
2018-07-17T08:39:57.962Z,6.10
2018-07-17T08:43:08.448Z,5.80
2018-07-17T08:46:19.767Z,5.57
2018-07-17T08:49:30.297Z,6.60
2018-07-17T08:52:40.236Z,4.90
2018-07-17T08:55:50.122Z,6.73
2018-07-17T08:59:00.706Z,5.10
2018-07-17T09:02:10.938Z,5.63
2018-07-17T09:05:20.552Z,4.83
2018-07-17T09:08:30.327Z,7.07
2018-07-17T09:11:40.074Z,5.17
2018-07-17T09:14:49.981Z,4.97
2018-07-17T09:17:59.977Z,6.60
2018-07-17T09:21:09.953Z,8.40
2018-07-17T09:24:20.048Z,6.70
2018-07-17T09:27:30.342Z,6.17
2018-07-17T09:30:45.449Z,6.63
2018-07-17T09:33:55.377Z,5.27
2018-07-17T09:37:05.783Z,6.40
2018-07-17T09:40:15.910Z,5.00
2018-07-17T09:43:26.071Z,4.93
2018-07-17T09:46:36.093Z,4.57
2018-07-17T09:49:46.158Z,5.50
2018-07-17T09:52:55.984Z,5.40
2018-07-17T09:56:05.772Z,4.27
2018-07-17T09:59:15.583Z,6.27
2018-07-17T10:02:29.764Z,5.10
2018-07-17T10:05:40.081Z,6.90
2018-07-17T10:08:50.036Z,4.90
2018-07-17T10:12:00.546Z,4.17
2018-07-17T10:15:10.289Z,4.93
2018-07-17T10:18:20.155Z,5.23
2018-07-17T10:21:30.089Z,5.40
2018-07-17T10:24:39.709Z,3.83
2018-07-17T10:27:49.445Z,3.80
2018-07-17T10:30:59.529Z,4.13
2018-07-17T10:34:09.370Z,4.23
2018-07-17T10:37:19.301Z,4.73
2018-07-17T10:40:29.185Z,4.80
2018-07-17T10:43:38.894Z,4.87
2018-07-17T10:46:48.827Z,4.50
2018-07-17T10:49:58.508Z,5.90
2018-07-17T10:53:08.436Z,4.67
2018-07-17T10:56:19.147Z,3.20
2018-07-17T10:59:29.609Z,4.00
2018-07-17T11:02:40.626Z,4.70
2018-07-17T11:05:53.123Z,4.10
2018-07-17T11:09:04.421Z,2.60
2018-07-17T11:12:14.707Z,4.87
2018-07-17T11:15:24.650Z,3.67
2018-07-17T11:18:34.633Z,3.77
2018-07-17T11:21:45.590Z,4.20
2018-07-17T11:24:56.169Z,4.43
2018-07-17T11:28:06.698Z,4.00
2018-07-17T11:31:17.771Z,4.50
2018-07-17T11:34:27.728Z,4.47
2018-07-17T11:37:37.911Z,3.50
2018-07-17T11:40:47.605Z,4.10
2018-07-17T11:43:57.704Z,5.07
2018-07-17T11:47:07.690Z,4.03
2018-07-17T11:50:17.422Z,3.70
2018-07-17T11:53:27.289Z,4.83
2018-07-17T11:56:37.202Z,4.87
2018-07-17T11:59:48.275Z,4.73
2018-07-17T12:02:57.940Z,6.40
2018-07-17T12:06:08.598Z,5.00
2018-07-17T12:09:19.346Z,4.63
2018-07-17T12:12:29.980Z,3.43
2018-07-17T12:15:39.716Z,5.47
2018-07-17T12:18:49.286Z,3.50
2018-07-17T12:21:59.414Z,4.33
2018-07-17T12:25:09.810Z,3.47
2018-07-17T12:28:19.658Z,5.40
2018-07-17T12:31:29.860Z,4.10
2018-07-17T12:34:40.450Z,4.60
2018-07-17T12:37:50.193Z,7.03
2018-07-17T12:41:00.094Z,5.30
2018-07-17T12:44:09.969Z,6.47
2018-07-17T12:47:20.593Z,7.20
2018-07-17T12:50:30.730Z,4.60
2018-07-17T12:53:40.590Z,5.67
2018-07-17T12:56:50.273Z,5.93
2018-07-17T13:00:00.769Z,9.07
2018-07-17T13:03:11.312Z,9.13
2018-07-17T13:06:21.390Z,8.43
2018-07-17T13:09:30.937Z,11.70
2018-07-17T13:12:40.813Z,5.90
2018-07-17T13:15:50.810Z,6.47
2018-07-17T13:19:00.428Z,5.30
2018-07-17T13:22:10.588Z,6.00
2018-07-17T13:25:20.231Z,6.30
2018-07-17T13:28:30.484Z,4.70
2018-07-17T13:31:40.564Z,5.67
2018-07-17T13:34:50.401Z,4.53
2018-07-17T13:38:00.279Z,5.53
2018-07-17T13:41:10.135Z,4.30
2018-07-17T13:44:20.352Z,4.83
2018-07-17T13:47:30.536Z,5.13
2018-07-17T13:50:40.978Z,4.10
2018-07-17T13:53:50.940Z,6.13
2018-07-17T13:57:00.830Z,4.70
2018-07-17T14:00:10.854Z,4.00
2018-07-17T14:03:21.717Z,4.17
2018-07-17T14:06:31.524Z,5.40
2018-07-17T14:09:41.409Z,4.00
2018-07-17T14:12:51.755Z,5.70
2018-07-17T14:16:01.547Z,3.97
2018-07-17T14:19:12.109Z,3.53
2018-07-17T14:22:22.251Z,5.30
2018-07-17T14:25:32.142Z,4.30
2018-07-17T14:28:41.781Z,4.40
2018-07-17T14:31:51.694Z,5.07
2018-07-17T14:35:01.793Z,5.97
2018-07-17T14:38:11.599Z,4.33
2018-07-17T14:41:21.338Z,3.80
2018-07-17T14:44:31.118Z,5.10
2018-07-17T14:47:41.026Z,5.53
2018-07-17T14:50:50.606Z,5.63
2018-07-17T14:54:00.349Z,5.13
2018-07-17T14:57:10.422Z,4.80
2018-07-17T15:00:20.482Z,7.93
2018-07-17T15:03:31.196Z,5.13
2018-07-17T15:06:41.455Z,3.63
2018-07-17T15:09:51.139Z,4.17
2018-07-17T15:13:02.000Z,6.07
2018-07-17T15:16:12.158Z,4.33
2018-07-17T15:19:22.377Z,6.40
2018-07-17T15:22:32.452Z,4.67
2018-07-17T15:25:42.366Z,5.13
2018-07-17T15:28:52.347Z,6.37
2018-07-17T15:32:03.357Z,6.60
2018-07-17T15:35:13.099Z,5.13
2018-07-17T15:38:23.322Z,4.80
2018-07-17T15:41:34.225Z,5.57
2018-07-17T15:44:44.862Z,6.00
2018-07-17T15:47:54.418Z,7.37
2018-07-17T15:51:04.350Z,5.00
2018-07-17T15:54:14.271Z,5.40
2018-07-17T15:57:24.566Z,5.00
2018-07-17T16:00:34.685Z,5.73
2018-07-17T16:03:45.425Z,4.70
2018-07-17T16:06:56.383Z,5.40
2018-07-17T16:10:06.073Z,7.17
2018-07-17T16:13:16.880Z,6.83
2018-07-17T16:16:27.043Z,6.23
2018-07-17T16:19:36.912Z,6.70
2018-07-17T16:22:49.143Z,7.47
2018-07-17T16:26:00.829Z,7.07
2018-07-17T16:29:10.606Z,6.83
2018-07-17T16:32:21.028Z,6.43
2018-07-17T16:35:31.651Z,7.43
2018-07-17T16:38:41.480Z,8.73
2018-07-17T16:41:51.255Z,7.20
2018-07-17T16:45:01.234Z,8.90
2018-07-17T16:48:11.140Z,8.23
2018-07-17T16:51:21.493Z,7.57
2018-07-17T16:54:31.348Z,7.50
2018-07-17T16:57:41.456Z,5.37
2018-07-17T17:00:51.574Z,5.67
2018-07-17T17:04:01.986Z,5.20
2018-07-17T17:07:12.190Z,5.53
2018-07-17T17:10:24.216Z,5.10
2018-07-17T17:13:37.815Z,4.70
2018-07-17T17:16:48.951Z,4.60
2018-07-17T17:20:02.351Z,4.27
2018-07-17T17:23:13.019Z,7.07
2018-07-17T17:26:23.852Z,4.70
2018-07-17T17:29:34.499Z,4.73
2018-07-17T17:32:44.475Z,4.67
2018-07-17T17:35:55.160Z,6.20
2018-07-17T17:39:08.313Z,3.60
2018-07-17T17:42:18.635Z,4.90
2018-07-17T17:45:28.588Z,8.07
2018-07-17T17:48:38.855Z,3.90
2018-07-17T17:51:49.264Z,5.67
2018-07-17T17:55:00.636Z,4.30
2018-07-17T17:58:11.022Z,5.30
2018-07-17T18:01:21.675Z,4.60
2018-07-17T18:04:31.947Z,4.17
2018-07-17T18:07:42.705Z,5.07
2018-07-17T18:10:53.449Z,7.23
2018-07-17T18:14:03.862Z,4.80
2018-07-17T18:17:13.662Z,4.23
2018-07-17T18:20:23.377Z,4.60
2018-07-17T18:23:33.154Z,4.07
2018-07-17T18:26:43.858Z,4.70
2018-07-17T18:29:53.548Z,4.23
2018-07-17T18:33:03.444Z,4.10
2018-07-17T18:36:14.239Z,4.90
2018-07-17T18:39:23.923Z,4.07
2018-07-17T18:42:33.585Z,5.07
2018-07-17T18:45:43.272Z,3.20
2018-07-17T18:48:53.022Z,4.43
2018-07-17T18:52:03.302Z,4.00
2018-07-17T18:55:13.646Z,4.63
2018-07-17T18:58:23.500Z,4.30
2018-07-17T19:01:33.929Z,5.90
2018-07-17T19:04:44.294Z,3.87
2018-07-17T19:07:54.465Z,5.53
2018-07-17T19:11:04.532Z,3.47
2018-07-17T19:14:14.862Z,5.07
2018-07-17T19:17:25.151Z,5.03
2018-07-17T19:20:35.809Z,5.57
2018-07-17T19:23:45.578Z,5.13
2018-07-17T19:26:56.285Z,5.80
2018-07-17T19:30:06.241Z,5.07
2018-07-17T19:33:18.360Z,6.17
2018-07-17T19:36:29.040Z,4.50
2018-07-17T19:39:38.721Z,5.37
2018-07-17T19:42:49.288Z,7.00
2018-07-17T19:45:59.206Z,4.20
2018-07-17T19:49:09.864Z,4.27
2018-07-17T19:52:19.681Z,3.83
2018-07-17T19:55:29.575Z,4.63
2018-07-17T19:58:39.589Z,4.87
2018-07-17T20:01:50.053Z,4.00
2018-07-17T20:05:00.443Z,3.73
2018-07-17T20:08:10.664Z,5.10
2018-07-17T20:11:20.831Z,5.33
2018-07-17T20:14:31.123Z,4.60
2018-07-17T20:17:42.838Z,4.60
2018-07-17T20:20:53.665Z,5.10
2018-07-17T20:24:03.562Z,5.50
2018-07-17T20:27:14.197Z,4.80
2018-07-17T20:30:24.162Z,5.93
2018-07-17T20:33:35.096Z,5.27
2018-07-17T20:36:45.823Z,4.50
2018-07-17T20:39:56.570Z,5.25
2018-07-17T20:43:07.207Z,5.33
2018-07-17T20:46:17.586Z,4.20
2018-07-17T20:49:27.848Z,4.83
2018-07-17T20:52:38.830Z,5.10
2018-07-17T20:55:49.490Z,5.00
2018-07-17T20:59:00.012Z,5.50
2018-07-17T21:02:12.003Z,4.85
2018-07-17T21:05:21.697Z,5.27
2018-07-17T21:08:31.758Z,6.90
2018-07-17T21:11:42.616Z,7.42
2018-07-17T21:14:53.428Z,8.45
2018-07-17T21:18:03.862Z,4.78
2018-07-17T21:21:13.887Z,6.15
2018-07-17T21:24:24.804Z,7.65
2018-07-17T21:27:35.021Z,5.85
2018-07-17T21:30:45.730Z,6.25
2018-07-17T21:33:55.670Z,5.40
2018-07-17T21:37:06.646Z,7.75
2018-07-17T21:40:17.219Z,5.65
2018-07-17T21:43:27.892Z,4.90
2018-07-17T21:46:37.883Z,6.45
2018-07-17T21:49:48.741Z,5.15
2018-07-17T21:52:58.654Z,4.40
2018-07-17T21:56:09.254Z,5.60
2018-07-17T21:59:19.319Z,5.15
2018-07-17T22:02:30.192Z,8.35
2018-07-17T22:05:40.847Z,5.53
2018-07-17T22:08:58.411Z,5.95
2018-07-17T22:12:08.350Z,6.40
2018-07-17T22:15:19.127Z,5.35
2018-07-17T22:18:29.910Z,6.03
2018-07-17T22:21:39.873Z,6.15
2018-07-17T22:24:50.772Z,4.92
2018-07-17T22:28:01.374Z,7.05
2018-07-17T22:31:12.129Z,5.42
2018-07-17T22:34:22.099Z,8.48
2018-07-17T22:37:32.067Z,6.90
2018-07-17T22:40:42.706Z,6.17
2018-07-17T22:43:53.527Z,6.53
2018-07-17T22:47:04.277Z,6.05
2018-07-17T22:50:14.887Z,7.10
2018-07-17T22:53:25.681Z,6.42
2018-07-17T22:56:36.240Z,9.00
2018-07-17T22:59:46.191Z,4.58
2018-07-17T23:02:57.295Z,4.67
2018-07-17T23:06:07.828Z,4.85
2018-07-17T23:09:17.778Z,4.20
2018-07-17T23:12:28.505Z,4.58
2018-07-17T23:15:38.095Z,4.50
2018-07-17T23:18:48.007Z,5.55
2018-07-17T23:21:59.198Z,6.70
2018-07-17T23:25:10.954Z,3.70
2018-07-17T23:28:21.715Z,5.25
2018-07-17T23:31:32.475Z,4.83
2018-07-17T23:34:43.193Z,5.78
2018-07-17T23:37:54.292Z,6.17
2018-07-17T23:41:04.922Z,5.95
2018-07-17T23:44:15.470Z,4.62
2018-07-17T23:47:26.281Z,4.25
2018-07-17T23:50:37.025Z,5.95
2018-07-17T23:53:47.424Z,4.87
2018-07-17T23:56:57.309Z,5.83
